sensor_id;sensor_type;location;lat;lon;timestamp;pressure;altitude;pressure_sealevel;temperature;humidity
55990;BME280;41875;55.806;38.082;2023-02-15T00:00:28;99578.84;;;-1.34;66.03
55990;BME280;41875;55.806;38.082;2023-02-15T00:02:56;99585.94;;;-1.54;67.00
55990;BME280;41875;55.806;38.082;2023-02-15T00:05:25;99590.28;;;-1.55;66.25
55990;BME280;41875;55.806;38.082;2023-02-15T00:07:53;99580.56;;;-1.17;64.99
55990;BME280;41875;55.806;38.082;2023-02-15T00:10:22;99589.31;;;-1.52;65.84
55990;BME280;41875;55.806;38.082;2023-02-15T00:12:50;99585.34;;;-1.59;65.84
55990;BME280;41875;55.806;38.082;2023-02-15T00:15:20;99586.50;;;-1.65;66.72
55990;BME280;41875;55.806;38.082;2023-02-15T00:17:48;99577.56;;;-1.43;66.39
55990;BME280;41875;55.806;38.082;2023-02-15T00:20:17;99582.06;;;-1.63;66.66
55990;BME280;41875;55.806;38.082;2023-02-15T00:22:46;99590.53;;;-1.59;66.67
55990;BME280;41875;55.806;38.082;2023-02-15T00:25:14;99571.75;;;-1.64;65.21
55990;BME280;41875;55.806;38.082;2023-02-15T00:27:43;99582.94;;;-1.46;66.91
55990;BME280;41875;55.806;38.082;2023-02-15T00:32:42;99580.78;;;-1.38;66.58
55990;BME280;41875;55.806;38.082;2023-02-15T00:35:11;99596.00;;;-1.48;66.04
55990;BME280;41875;55.806;38.082;2023-02-15T00:37:39;99602.03;;;-1.14;65.83
55990;BME280;41875;55.806;38.082;2023-02-15T00:40:08;99592.72;;;-1.18;65.80
55990;BME280;41875;55.806;38.082;2023-02-15T00:42:38;99590.91;;;-1.33;67.01
55990;BME280;41875;55.806;38.082;2023-02-15T00:45:08;99596.78;;;-1.46;66.76
55990;BME280;41875;55.806;38.082;2023-02-15T00:47:37;99601.69;;;-1.57;67.27
55990;BME280;41875;55.806;38.082;2023-02-15T00:50:08;99606.75;;;-1.72;68.16
55990;BME280;41875;55.806;38.082;2023-02-15T00:52:37;99593.81;;;-1.56;67.43
55990;BME280;41875;55.806;38.082;2023-02-15T00:55:06;99593.97;;;-1.59;68.39
55990;BME280;41875;55.806;38.082;2023-02-15T00:57:34;99612.34;;;-1.46;68.35
55990;BME280;41875;55.806;38.082;2023-02-15T01:00:02;99617.91;;;-1.36;68.08
55990;BME280;41875;55.806;38.082;2023-02-15T01:02:31;99614.16;;;-1.64;68.62
55990;BME280;41875;55.806;38.082;2023-02-15T01:05:01;99599.22;;;-1.43;68.27
55990;BME280;41875;55.806;38.082;2023-02-15T01:07:31;99613.66;;;-1.21;67.32
55990;BME280;41875;55.806;38.082;2023-02-15T01:09:59;99603.59;;;-1.27;67.06
55990;BME280;41875;55.806;38.082;2023-02-15T01:12:29;99599.59;;;-1.17;66.63
55990;BME280;41875;55.806;38.082;2023-02-15T01:14:57;99623.38;;;-1.25;67.54
55990;BME280;41875;55.806;38.082;2023-02-15T01:17:26;99616.53;;;-1.43;67.68
55990;BME280;41875;55.806;38.082;2023-02-15T01:19:54;99603.34;;;-1.39;67.81
55990;BME280;41875;55.806;38.082;2023-02-15T01:22:23;99620.34;;;-1.66;68.69
55990;BME280;41875;55.806;38.082;2023-02-15T01:24:52;99621.72;;;-1.59;68.40
55990;BME280;41875;55.806;38.082;2023-02-15T01:27:21;99607.19;;;-1.63;68.25
55990;BME280;41875;55.806;38.082;2023-02-15T01:29:49;99610.13;;;-1.70;68.16
55990;BME280;41875;55.806;38.082;2023-02-15T01:32:18;99657.25;;;-1.95;69.44
55990;BME280;41875;55.806;38.082;2023-02-15T01:34:46;99607.28;;;-1.31;67.71
55990;BME280;41875;55.806;38.082;2023-02-15T01:37:14;99619.88;;;-1.57;68.42
55990;BME280;41875;55.806;38.082;2023-02-15T01:39:42;99619.19;;;-1.61;68.38
55990;BME280;41875;55.806;38.082;2023-02-15T01:42:21;99611.44;;;-1.78;68.83
55990;BME280;41875;55.806;38.082;2023-02-15T01:44:51;99609.97;;;-1.66;66.96
55990;BME280;41875;55.806;38.082;2023-02-15T01:47:23;99635.47;;;-1.92;68.56
55990;BME280;41875;55.806;38.082;2023-02-15T01:50:00;99618.88;;;-1.55;68.07
55990;BME280;41875;55.806;38.082;2023-02-15T01:52:29;99634.53;;;-1.56;67.41
55990;BME280;41875;55.806;38.082;2023-02-15T01:54:58;99630.34;;;-1.25;65.68
55990;BME280;41875;55.806;38.082;2023-02-15T01:57:31;99650.00;;;-1.71;67.47
55990;BME280;41875;55.806;38.082;2023-02-15T02:00:04;99638.53;;;-1.84;66.62
55990;BME280;41875;55.806;38.082;2023-02-15T02:02:41;99645.91;;;-1.59;66.59
55990;BME280;41875;55.806;38.082;2023-02-15T02:05:11;99624.03;;;-1.37;64.90
55990;BME280;41875;55.806;38.082;2023-02-15T02:07:43;99648.03;;;-1.83;66.89
55990;BME280;41875;55.806;38.082;2023-02-15T02:10:15;99624.78;;;-1.69;65.02
55990;BME280;41875;55.806;38.082;2023-02-15T02:12:46;99638.06;;;-1.75;66.06
55990;BME280;41875;55.806;38.082;2023-02-15T02:15:17;99626.38;;;-1.66;64.56
55990;BME280;41875;55.806;38.082;2023-02-15T02:17:55;99630.19;;;-1.73;65.66
55990;BME280;41875;55.806;38.082;2023-02-15T02:20:52;99633.66;;;-1.90;66.09
55990;BME280;41875;55.806;38.082;2023-02-15T02:23:42;99632.00;;;-1.58;65.31
55990;BME280;41875;55.806;38.082;2023-02-15T02:26:42;99646.53;;;-1.54;64.46
55990;BME280;41875;55.806;38.082;2023-02-15T02:32:56;99648.31;;;-1.72;64.90
55990;BME280;41875;55.806;38.082;2023-02-15T02:35:34;99634.16;;;-1.48;64.07
55990;BME280;41875;55.806;38.082;2023-02-15T02:38:10;99648.31;;;-1.54;64.87
55990;BME280;41875;55.806;38.082;2023-02-15T02:40:50;99647.84;;;-1.80;64.92
55990;BME280;41875;55.806;38.082;2023-02-15T02:43:25;99657.41;;;-1.98;64.06
55990;BME280;41875;55.806;38.082;2023-02-15T02:46:00;99667.66;;;-1.77;64.01
55990;BME280;41875;55.806;38.082;2023-02-15T02:48:33;99654.13;;;-1.66;65.22
55990;BME280;41875;55.806;38.082;2023-02-15T02:51:02;99653.03;;;-1.62;63.47
55990;BME280;41875;55.806;38.082;2023-02-15T02:53:31;99670.53;;;-1.84;64.13
55990;BME280;41875;55.806;38.082;2023-02-15T02:56:06;99657.78;;;-1.88;64.31
55990;BME280;41875;55.806;38.082;2023-02-15T02:58:38;99664.25;;;-1.97;64.57
55990;BME280;41875;55.806;38.082;2023-02-15T03:01:14;99655.81;;;-1.83;64.63
55990;BME280;41875;55.806;38.082;2023-02-15T03:03:47;99691.44;;;-1.87;64.52
55990;BME280;41875;55.806;38.082;2023-02-15T03:06:20;99665.97;;;-1.78;63.18
55990;BME280;41875;55.806;38.082;2023-02-15T03:08:56;99666.72;;;-1.76;63.51
55990;BME280;41875;55.806;38.082;2023-02-15T03:11:26;99691.06;;;-2.14;64.40
55990;BME280;41875;55.806;38.082;2023-02-15T03:13:55;99665.25;;;-2.17;64.58
55990;BME280;41875;55.806;38.082;2023-02-15T03:16:26;99676.78;;;-2.05;64.24
55990;BME280;41875;55.806;38.082;2023-02-15T03:18:59;99670.84;;;-1.90;64.30
55990;BME280;41875;55.806;38.082;2023-02-15T03:21:33;99664.81;;;-1.73;63.64
55990;BME280;41875;55.806;38.082;2023-02-15T03:24:10;99675.19;;;-1.90;64.59
55990;BME280;41875;55.806;38.082;2023-02-15T03:26:46;99662.50;;;-1.79;64.16
55990;BME280;41875;55.806;38.082;2023-02-15T03:29:16;99674.13;;;-1.86;62.94
55990;BME280;41875;55.806;38.082;2023-02-15T03:31:54;99689.72;;;-1.86;64.66
55990;BME280;41875;55.806;38.082;2023-02-15T03:34:25;99677.25;;;-1.97;64.62
55990;BME280;41875;55.806;38.082;2023-02-15T03:36:58;99668.47;;;-2.12;65.17
55990;BME280;41875;55.806;38.082;2023-02-15T03:39:31;99669.00;;;-1.88;64.72
55990;BME280;41875;55.806;38.082;2023-02-15T03:42:08;99668.38;;;-2.10;64.99
55990;BME280;41875;55.806;38.082;2023-02-15T03:44:45;99676.56;;;-2.01;65.56
55990;BME280;41875;55.806;38.082;2023-02-15T03:47:17;99669.53;;;-2.16;65.00
55990;BME280;41875;55.806;38.082;2023-02-15T03:49:53;99680.81;;;-2.17;65.42
55990;BME280;41875;55.806;38.082;2023-02-15T03:52:25;99665.88;;;-2.31;65.85
55990;BME280;41875;55.806;38.082;2023-02-15T03:54:53;99689.22;;;-2.12;64.65
55990;BME280;41875;55.806;38.082;2023-02-15T03:57:24;99670.03;;;-2.27;65.11
55990;BME280;41875;55.806;38.082;2023-02-15T04:00:14;99693.19;;;-2.05;64.96
55990;BME280;41875;55.806;38.082;2023-02-15T04:03:11;99687.72;;;-2.35;65.44
55990;BME280;41875;55.806;38.082;2023-02-15T04:05:42;99692.50;;;-2.08;64.95
55990;BME280;41875;55.806;38.082;2023-02-15T04:08:12;99697.66;;;-2.26;65.19
55990;BME280;41875;55.806;38.082;2023-02-15T04:10:41;99691.28;;;-2.01;64.51
55990;BME280;41875;55.806;38.082;2023-02-15T04:13:30;99693.66;;;-2.14;65.03
55990;BME280;41875;55.806;38.082;2023-02-15T04:15:59;99691.50;;;-2.06;64.07
55990;BME280;41875;55.806;38.082;2023-02-15T04:18:37;99716.00;;;-2.11;65.52
55990;BME280;41875;55.806;38.082;2023-02-15T04:21:27;99684.38;;;-2.37;65.36
55990;BME280;41875;55.806;38.082;2023-02-15T04:24:14;99686.38;;;-2.25;65.04
55990;BME280;41875;55.806;38.082;2023-02-15T04:27:00;99688.63;;;-2.36;65.39
55990;BME280;41875;55.806;38.082;2023-02-15T04:29:30;99697.22;;;-2.17;65.28
55990;BME280;41875;55.806;38.082;2023-02-15T04:32:01;99687.47;;;-2.11;64.84
55990;BME280;41875;55.806;38.082;2023-02-15T04:34:30;99693.19;;;-2.05;64.56
55990;BME280;41875;55.806;38.082;2023-02-15T04:37:00;99677.41;;;-2.00;64.97
55990;BME280;41875;55.806;38.082;2023-02-15T04:39:28;99692.88;;;-2.16;64.15
55990;BME280;41875;55.806;38.082;2023-02-15T04:41:57;99703.69;;;-2.25;65.15
55990;BME280;41875;55.806;38.082;2023-02-15T04:44:25;99695.97;;;-2.27;65.69
55990;BME280;41875;55.806;38.082;2023-02-15T04:46:54;99701.56;;;-1.80;63.16
55990;BME280;41875;55.806;38.082;2023-02-15T04:49:22;99697.47;;;-2.04;63.91
55990;BME280;41875;55.806;38.082;2023-02-15T04:51:51;99698.47;;;-1.89;63.99
55990;BME280;41875;55.806;38.082;2023-02-15T04:54:20;99703.34;;;-2.00;63.83
55990;BME280;41875;55.806;38.082;2023-02-15T04:56:49;99702.31;;;-1.61;62.42
55990;BME280;41875;55.806;38.082;2023-02-15T04:59:17;99704.38;;;-1.85;64.11
55990;BME280;41875;55.806;38.082;2023-02-15T05:01:46;99701.06;;;-2.06;64.23
55990;BME280;41875;55.806;38.082;2023-02-15T05:04:14;99691.06;;;-2.14;64.19
55990;BME280;41875;55.806;38.082;2023-02-15T05:06:43;99712.03;;;-2.38;64.07
55990;BME280;41875;55.806;38.082;2023-02-15T05:09:11;99706.81;;;-2.19;62.82
55990;BME280;41875;55.806;38.082;2023-02-15T05:11:41;99710.28;;;-2.56;63.91
55990;BME280;41875;55.806;38.082;2023-02-15T05:14:10;99707.91;;;-2.42;64.00
55990;BME280;41875;55.806;38.082;2023-02-15T05:16:38;99709.47;;;-2.57;63.43
55990;BME280;41875;55.806;38.082;2023-02-15T05:19:06;99711.09;;;-2.35;63.68
55990;BME280;41875;55.806;38.082;2023-02-15T05:21:35;99719.75;;;-2.55;63.40
55990;BME280;41875;55.806;38.082;2023-02-15T05:24:04;99728.06;;;-2.47;64.27
55990;BME280;41875;55.806;38.082;2023-02-15T05:26:54;99726.72;;;-2.56;63.42
55990;BME280;41875;55.806;38.082;2023-02-15T05:29:39;99727.94;;;-2.26;63.07
55990;BME280;41875;55.806;38.082;2023-02-15T05:32:07;99727.34;;;-2.32;63.35
55990;BME280;41875;55.806;38.082;2023-02-15T05:34:36;99724.06;;;-2.18;62.60
55990;BME280;41875;55.806;38.082;2023-02-15T05:37:04;99731.19;;;-2.40;63.21
55990;BME280;41875;55.806;38.082;2023-02-15T05:39:32;99745.91;;;-2.41;62.87
55990;BME280;41875;55.806;38.082;2023-02-15T05:42:03;99732.31;;;-2.27;62.52
55990;BME280;41875;55.806;38.082;2023-02-15T05:44:31;99742.84;;;-1.93;61.22
55990;BME280;41875;55.806;38.082;2023-02-15T05:47:07;99756.66;;;-2.30;63.51
55990;BME280;41875;55.806;38.082;2023-02-15T05:49:58;99713.09;;;-2.42;63.26
55990;BME280;41875;55.806;38.082;2023-02-15T05:52:46;99736.06;;;-2.52;62.28
55990;BME280;41875;55.806;38.082;2023-02-15T05:55:37;99780.19;;;-2.53;63.09
55990;BME280;41875;55.806;38.082;2023-02-15T05:58:07;99731.19;;;-2.40;61.99
55990;BME280;41875;55.806;38.082;2023-02-15T06:00:36;99744.16;;;-2.21;62.69
55990;BME280;41875;55.806;38.082;2023-02-15T06:03:04;99749.88;;;-2.72;62.45
55990;BME280;41875;55.806;38.082;2023-02-15T06:05:33;99746.69;;;-2.20;62.44
55990;BME280;41875;55.806;38.082;2023-02-15T06:08:01;99746.31;;;-2.31;62.37
55990;BME280;41875;55.806;38.082;2023-02-15T06:10:31;99741.63;;;-2.42;63.08
55990;BME280;41875;55.806;38.082;2023-02-15T06:13:00;99759.88;;;-2.43;63.48
55990;BME280;41875;55.806;38.082;2023-02-15T06:15:29;99747.19;;;-2.31;62.77
55990;BME280;41875;55.806;38.082;2023-02-15T06:17:58;99776.13;;;-2.59;63.34
55990;BME280;41875;55.806;38.082;2023-02-15T06:20:27;99761.56;;;-2.62;63.50
55990;BME280;41875;55.806;38.082;2023-02-15T06:22:55;99773.53;;;-2.40;64.30
55990;BME280;41875;55.806;38.082;2023-02-15T06:25:23;99763.59;;;-2.30;64.47
55990;BME280;41875;55.806;38.082;2023-02-15T06:27:52;99753.47;;;-2.55;63.86
55990;BME280;41875;55.806;38.082;2023-02-15T06:30:20;99765.44;;;-2.72;65.01
55990;BME280;41875;55.806;38.082;2023-02-15T06:32:50;99756.72;;;-2.50;63.91
55990;BME280;41875;55.806;38.082;2023-02-15T06:35:18;99772.28;;;-2.50;63.37
55990;BME280;41875;55.806;38.082;2023-02-15T06:37:48;99758.69;;;-2.17;61.90
55990;BME280;41875;55.806;38.082;2023-02-15T06:40:17;99765.69;;;-2.19;62.98
55990;BME280;41875;55.806;38.082;2023-02-15T06:42:46;99762.41;;;-2.23;62.36
55990;BME280;41875;55.806;38.082;2023-02-15T06:45:14;99774.75;;;-2.47;63.81
55990;BME280;41875;55.806;38.082;2023-02-15T06:47:42;99774.00;;;-1.93;62.52
55990;BME280;41875;55.806;38.082;2023-02-15T06:50:12;99783.38;;;-2.27;63.25
55990;BME280;41875;55.806;38.082;2023-02-15T06:52:40;99777.59;;;-2.34;64.62
55990;BME280;41875;55.806;38.082;2023-02-15T06:55:08;99779.72;;;-2.23;64.15
55990;BME280;41875;55.806;38.082;2023-02-15T06:57:37;99769.56;;;-1.91;62.51
55990;BME280;41875;55.806;38.082;2023-02-15T07:00:05;99774.78;;;-1.91;62.86
55990;BME280;41875;55.806;38.082;2023-02-15T07:02:35;99770.31;;;-2.07;62.55
55990;BME280;41875;55.806;38.082;2023-02-15T07:05:03;99779.59;;;-2.39;63.95
55990;BME280;41875;55.806;38.082;2023-02-15T07:07:33;99777.91;;;-2.59;63.94
55990;BME280;41875;55.806;38.082;2023-02-15T07:10:02;99774.66;;;-2.26;62.75
55990;BME280;41875;55.806;38.082;2023-02-15T07:12:31;99798.69;;;-2.42;62.63
55990;BME280;41875;55.806;38.082;2023-02-15T07:15:13;99773.13;;;-2.50;63.58
55990;BME280;41875;55.806;38.082;2023-02-15T07:17:42;99772.38;;;-2.33;63.30
55990;BME280;41875;55.806;38.082;2023-02-15T07:20:15;99791.16;;;-2.27;63.94
55990;BME280;41875;55.806;38.082;2023-02-15T07:22:45;99786.03;;;-2.29;63.58
55990;BME280;41875;55.806;38.082;2023-02-15T07:25:14;99795.63;;;-2.31;62.75
55990;BME280;41875;55.806;38.082;2023-02-15T07:27:42;99790.22;;;-2.26;62.02
55990;BME280;41875;55.806;38.082;2023-02-15T07:30:13;99776.25;;;-2.62;63.03
55990;BME280;41875;55.806;38.082;2023-02-15T07:32:43;99773.53;;;-2.78;63.84
55990;BME280;41875;55.806;38.082;2023-02-15T07:35:31;99794.75;;;-2.70;64.32
55990;BME280;41875;55.806;38.082;2023-02-15T07:38:01;99781.28;;;-2.38;64.10
55990;BME280;41875;55.806;38.082;2023-02-15T07:40:30;99780.16;;;-1.77;62.17
55990;BME280;41875;55.806;38.082;2023-02-15T07:42:58;99779.72;;;-2.23;62.49
55990;BME280;41875;55.806;38.082;2023-02-15T07:45:27;99805.38;;;-2.17;63.33
55990;BME280;41875;55.806;38.082;2023-02-15T07:47:55;99783.38;;;-1.72;62.10
55990;BME280;41875;55.806;38.082;2023-02-15T07:50:23;99813.72;;;-1.91;62.19
55990;BME280;41875;55.806;38.082;2023-02-15T07:52:52;99783.97;;;-2.03;61.55
55990;BME280;41875;55.806;38.082;2023-02-15T07:55:22;99791.22;;;-1.91;61.43
55990;BME280;41875;55.806;38.082;2023-02-15T07:57:51;99788.78;;;-2.13;61.94
55990;BME280;41875;55.806;38.082;2023-02-15T08:00:24;99810.28;;;-2.11;63.17
55990;BME280;41875;55.806;38.082;2023-02-15T08:02:54;99799.41;;;-2.00;62.19
55990;BME280;41875;55.806;38.082;2023-02-15T08:05:43;99764.22;;;-2.25;62.51
55990;BME280;41875;55.806;38.082;2023-02-15T08:08:12;99829.31;;;-2.30;62.72
55990;BME280;41875;55.806;38.082;2023-02-15T08:11:03;99815.94;;;-1.84;61.19
55990;BME280;41875;55.806;38.082;2023-02-15T08:13:53;99845.31;;;-2.20;61.52
55990;BME280;41875;55.806;38.082;2023-02-15T08:16:23;99842.56;;;-2.36;62.29
55990;BME280;41875;55.806;38.082;2023-02-15T08:18:52;99845.78;;;-2.50;62.33
55990;BME280;41875;55.806;38.082;2023-02-15T08:21:21;99812.41;;;-2.38;61.40
55990;BME280;41875;55.806;38.082;2023-02-15T08:23:51;99835.16;;;-2.05;61.54
55990;BME280;41875;55.806;38.082;2023-02-15T08:26:20;99822.00;;;-2.02;60.40
55990;BME280;41875;55.806;38.082;2023-02-15T08:28:50;99832.53;;;-2.24;61.43
55990;BME280;41875;55.806;38.082;2023-02-15T08:31:19;99823.25;;;-2.11;61.18
55990;BME280;41875;55.806;38.082;2023-02-15T08:33:49;99840.53;;;-2.29;61.16
55990;BME280;41875;55.806;38.082;2023-02-15T08:36:20;99821.09;;;-2.20;61.31
55990;BME280;41875;55.806;38.082;2023-02-15T08:38:49;99822.34;;;-2.10;60.76
55990;BME280;41875;55.806;38.082;2023-02-15T08:41:18;99832.19;;;-1.97;60.83
55990;BME280;41875;55.806;38.082;2023-02-15T08:43:51;99826.72;;;-2.10;61.40
55990;BME280;41875;55.806;38.082;2023-02-15T08:46:22;99832.13;;;-1.96;61.18
55990;BME280;41875;55.806;38.082;2023-02-15T08:48:51;99845.00;;;-1.94;61.47
55990;BME280;41875;55.806;38.082;2023-02-15T08:51:21;99847.31;;;-1.69;60.33
55990;BME280;41875;55.806;38.082;2023-02-15T08:53:51;99841.28;;;-1.89;60.77
55990;BME280;41875;55.806;38.082;2023-02-15T08:56:21;99847.56;;;-2.12;61.20
55990;BME280;41875;55.806;38.082;2023-02-15T08:58:52;99843.88;;;-1.89;61.05
55990;BME280;41875;55.806;38.082;2023-02-15T09:01:22;99834.06;;;-2.01;61.36
55990;BME280;41875;55.806;38.082;2023-02-15T09:03:55;99834.81;;;-1.80;59.99
55990;BME280;41875;55.806;38.082;2023-02-15T09:06:24;99854.69;;;-1.79;60.71
55990;BME280;41875;55.806;38.082;2023-02-15T09:08:53;99850.72;;;-1.86;61.06
55990;BME280;41875;55.806;38.082;2023-02-15T09:11:24;99839.47;;;-1.50;59.58
55990;BME280;41875;55.806;38.082;2023-02-15T09:13:55;99834.00;;;-1.44;58.33
55990;BME280;41875;55.806;38.082;2023-02-15T09:16:27;99843.56;;;-1.63;60.25
55990;BME280;41875;55.806;38.082;2023-02-15T09:18:57;99856.53;;;-1.27;59.63
55990;BME280;41875;55.806;38.082;2023-02-15T09:21:26;99851.59;;;-1.68;60.98
55990;BME280;41875;55.806;38.082;2023-02-15T09:23:57;99859.69;;;-1.38;59.82
55990;BME280;41875;55.806;38.082;2023-02-15T09:26:28;99851.28;;;-1.25;60.31
55990;BME280;41875;55.806;38.082;2023-02-15T09:28:59;99868.91;;;-1.49;59.49
55990;BME280;41875;55.806;38.082;2023-02-15T09:31:30;99877.28;;;-1.81;61.19
55990;BME280;41875;55.806;38.082;2023-02-15T09:33:59;99865.94;;;-1.78;61.22
55990;BME280;41875;55.806;38.082;2023-02-15T09:36:31;99867.88;;;-1.64;60.03
55990;BME280;41875;55.806;38.082;2023-02-15T09:39:04;99894.28;;;-1.93;60.30
55990;BME280;41875;55.806;38.082;2023-02-15T09:42:01;99893.84;;;-1.64;60.61
55990;BME280;41875;55.806;38.082;2023-02-15T09:44:43;99870.63;;;-1.31;60.01
55990;BME280;41875;55.806;38.082;2023-02-15T09:47:34;99878.06;;;-1.79;61.23
55990;BME280;41875;55.806;38.082;2023-02-15T09:50:14;99877.34;;;-1.27;59.11
55990;BME280;41875;55.806;38.082;2023-02-15T09:53:05;99879.72;;;-1.40;58.46
55990;BME280;41875;55.806;38.082;2023-02-15T09:55:45;99860.28;;;-1.69;61.03
55990;BME280;41875;55.806;38.082;2023-02-15T09:58:23;99886.47;;;-1.55;60.42
55990;BME280;41875;55.806;38.082;2023-02-15T10:01:05;99884.09;;;-1.05;58.54
55990;BME280;41875;55.806;38.082;2023-02-15T10:03:44;99882.84;;;-1.33;59.90
55990;BME280;41875;55.806;38.082;2023-02-15T10:06:31;99881.69;;;-1.45;59.31
55990;BME280;41875;55.806;38.082;2023-02-15T10:09:06;99877.50;;;-1.30;59.09
55990;BME280;41875;55.806;38.082;2023-02-15T10:11:48;99892.94;;;-1.44;58.10
55990;BME280;41875;55.806;38.082;2023-02-15T10:17:34;99907.44;;;-1.40;59.72
55990;BME280;41875;55.806;38.082;2023-02-15T10:20:17;99901.50;;;-1.61;59.48
55990;BME280;41875;55.806;38.082;2023-02-15T10:23:03;99886.81;;;-1.26;59.22
55990;BME280;41875;55.806;38.082;2023-02-15T10:25:42;99910.28;;;-0.90;57.48
55990;BME280;41875;55.806;38.082;2023-02-15T10:28:17;99896.06;;;-1.20;57.96
55990;BME280;41875;55.806;38.082;2023-02-15T10:30:48;99904.91;;;-1.05;58.28
55990;BME280;41875;55.806;38.082;2023-02-15T10:33:33;99894.34;;;-1.19;59.36
55990;BME280;41875;55.806;38.082;2023-02-15T10:36:11;99918.59;;;-1.38;58.73
55990;BME280;41875;55.806;38.082;2023-02-15T10:38:47;99907.84;;;-1.30;58.68
55990;BME280;41875;55.806;38.082;2023-02-15T10:41:26;99914.63;;;-1.09;59.22
55990;BME280;41875;55.806;38.082;2023-02-15T10:44:14;99928.38;;;-1.62;59.65
55990;BME280;41875;55.806;38.082;2023-02-15T10:46:59;99914.88;;;-1.32;59.42
55990;BME280;41875;55.806;38.082;2023-02-15T10:49:47;99925.25;;;-0.96;57.10
55990;BME280;41875;55.806;38.082;2023-02-15T10:52:28;99932.72;;;-1.44;59.23
55990;BME280;41875;55.806;38.082;2023-02-15T10:55:06;99932.66;;;-1.23;58.66
55990;BME280;41875;55.806;38.082;2023-02-15T10:57:46;99935.03;;;-1.18;58.97
55990;BME280;41875;55.806;38.082;2023-02-15T11:00:23;99954.34;;;-0.87;56.61
55990;BME280;41875;55.806;38.082;2023-02-15T11:03:05;99936.56;;;-1.33;57.66
55990;BME280;41875;55.806;38.082;2023-02-15T11:05:45;99940.19;;;-0.64;57.81
55990;BME280;41875;55.806;38.082;2023-02-15T11:08:21;99927.00;;;-1.14;56.89
55990;BME280;41875;55.806;38.082;2023-02-15T11:10:55;99938.63;;;-1.03;56.89
55990;BME280;41875;55.806;38.082;2023-02-15T11:13:29;99925.34;;;-0.62;55.44
55990;BME280;41875;55.806;38.082;2023-02-15T11:16:03;99927.69;;;-1.10;57.33
55990;BME280;41875;55.806;38.082;2023-02-15T11:18:36;99925.91;;;-1.27;57.45
55990;BME280;41875;55.806;38.082;2023-02-15T11:21:13;99934.34;;;-1.22;57.24
55990;BME280;41875;55.806;38.082;2023-02-15T11:23:47;99946.38;;;-0.67;55.27
55990;BME280;41875;55.806;38.082;2023-02-15T11:26:21;99956.75;;;-1.58;58.07
55990;BME280;41875;55.806;38.082;2023-02-15T11:28:53;99946.78;;;-1.29;56.92
55990;BME280;41875;55.806;38.082;2023-02-15T11:31:26;99936.31;;;-1.46;57.54
55990;BME280;41875;55.806;38.082;2023-02-15T11:33:58;99954.66;;;-1.49;58.32
55990;BME280;41875;55.806;38.082;2023-02-15T11:36:33;99973.66;;;-1.68;58.34
55990;BME280;41875;55.806;38.082;2023-02-15T11:39:09;99968.03;;;-1.78;58.70
55990;BME280;41875;55.806;38.082;2023-02-15T11:41:41;99952.94;;;-1.31;57.35
55990;BME280;41875;55.806;38.082;2023-02-15T11:44:15;99978.94;;;-1.70;57.71
55990;BME280;41875;55.806;38.082;2023-02-15T11:46:46;99973.19;;;-1.57;57.75
55990;BME280;41875;55.806;38.082;2023-02-15T11:49:22;99988.69;;;-1.75;57.07
55990;BME280;41875;55.806;38.082;2023-02-15T11:51:53;99989.72;;;-1.79;57.82
55990;BME280;41875;55.806;38.082;2023-02-15T11:54:26;99986.22;;;-1.78;57.30
55990;BME280;41875;55.806;38.082;2023-02-15T11:56:59;99980.53;;;-1.86;57.46
55990;BME280;41875;55.806;38.082;2023-02-15T11:59:34;99995.31;;;-1.67;56.55
55990;BME280;41875;55.806;38.082;2023-02-15T12:02:15;99979.75;;;-1.88;57.64
55990;BME280;41875;55.806;38.082;2023-02-15T12:04:49;99987.09;;;-1.77;56.82
55990;BME280;41875;55.806;38.082;2023-02-15T12:07:24;99999.78;;;-1.71;55.71
55990;BME280;41875;55.806;38.082;2023-02-15T12:10:00;99994.81;;;-1.57;55.63
55990;BME280;41875;55.806;38.082;2023-02-15T12:12:32;99986.50;;;-1.27;54.64
55990;BME280;41875;55.806;38.082;2023-02-15T12:15:04;99997.78;;;-1.26;53.98
55990;BME280;41875;55.806;38.082;2023-02-15T12:17:37;100001.84;;;-0.84;53.58
55990;BME280;41875;55.806;38.082;2023-02-15T12:20:21;99990.91;;;-1.46;55.53
55990;BME280;41875;55.806;38.082;2023-02-15T12:22:59;100002.63;;;-1.38;55.59
55990;BME280;41875;55.806;38.082;2023-02-15T12:25:35;100002.75;;;-1.41;54.81
55990;BME280;41875;55.806;38.082;2023-02-15T12:28:19;100020.00;;;-1.59;55.54
55990;BME280;41875;55.806;38.082;2023-02-15T12:30:50;100017.06;;;-1.51;55.30
55990;BME280;41875;55.806;38.082;2023-02-15T12:33:26;100004.28;;;-1.56;54.89
55990;BME280;41875;55.806;38.082;2023-02-15T12:35:57;99999.03;;;-1.54;55.23
55990;BME280;41875;55.806;38.082;2023-02-15T12:38:30;100010.81;;;-1.09;54.15
55990;BME280;41875;55.806;38.082;2023-02-15T12:41:00;100032.81;;;-1.54;54.74
55990;BME280;41875;55.806;38.082;2023-02-15T12:43:32;100054.53;;;-1.96;55.49
55990;BME280;41875;55.806;38.082;2023-02-15T12:46:19;100035.53;;;-1.76;55.18
55990;BME280;41875;55.806;38.082;2023-02-15T12:49:05;100031.97;;;-1.55;55.19
55990;BME280;41875;55.806;38.082;2023-02-15T12:51:46;100026.72;;;-1.53;55.51
55990;BME280;41875;55.806;38.082;2023-02-15T12:54:24;100026.84;;;-1.56;54.02
55990;BME280;41875;55.806;38.082;2023-02-15T12:56:55;100032.16;;;-1.78;54.88
55990;BME280;41875;55.806;38.082;2023-02-15T12:59:25;100038.78;;;-1.52;54.67
55990;BME280;41875;55.806;38.082;2023-02-15T13:01:54;100028.72;;;-2.00;55.82
55990;BME280;41875;55.806;38.082;2023-02-15T13:04:25;100046.25;;;-2.05;57.05
55990;BME280;41875;55.806;38.082;2023-02-15T13:06:57;100058.69;;;-1.92;56.33
55990;BME280;41875;55.806;38.082;2023-02-15T13:09:37;100056.50;;;-2.02;56.85
55990;BME280;41875;55.806;38.082;2023-02-15T13:12:14;100042.66;;;-2.02;55.87
55990;BME280;41875;55.806;38.082;2023-02-15T13:14:45;100061.44;;;-2.16;57.02
55990;BME280;41875;55.806;38.082;2023-02-15T13:17:19;100060.06;;;-2.25;56.66
55990;BME280;41875;55.806;38.082;2023-02-15T13:19:52;100054.28;;;-2.11;56.25
55990;BME280;41875;55.806;38.082;2023-02-15T13:22:28;100080.38;;;-1.93;55.75
55990;BME280;41875;55.806;38.082;2023-02-15T13:25:04;100057.88;;;-2.13;56.93
55990;BME280;41875;55.806;38.082;2023-02-15T13:27:40;100089.97;;;-1.95;56.41
55990;BME280;41875;55.806;38.082;2023-02-15T13:30:22;100078.81;;;-1.77;56.51